Terminal Aerodrome Forecast
Issued by NWS Sterling, VA

Current Version | Previous Version | Text Only | Print | Product List | Glossary Off
Versions: 1 2 3 4 5 6 7 8 9 10 11 12 13 14 15 16 17 18 19 20 21 22 23 24 25 26 27

000
FTUS41 KLWX 241459 AAA
TAFDCA
TAF AMD
KDCA 241459Z 2415/2512 05010G18KT P6SM -RA SCT025 OVC050
     FM241900 05012G20KT 5SM -RA BKN025 OVC050
     FM242200 05012G20KT 5SM -RA BKN015 OVC025
     FM250100 04010G18KT 5SM -RA BKN008 OVC015
     FM250700 04010KT 5SM -RA BR BKN008 OVC015=

USA.gov is the U.S. government's official web portal to all federal, state and local government web resources and services.